sensor_id;sensor_type;location;lat;lon;timestamp;P1;durP1;ratioP1;P2;durP2;ratioP2
64199;SDS011;50516;52.272;5.136;2023-05-16T00:00:17;19.63;;;5.65;;
64199;SDS011;50516;52.272;5.136;2023-05-16T00:02:43;21.80;;;3.63;;
64199;SDS011;50516;52.272;5.136;2023-05-16T00:05:08;14.35;;;3.42;;
64199;SDS011;50516;52.272;5.136;2023-05-16T00:07:40;13.45;;;3.53;;
64199;SDS011;50516;52.272;5.136;2023-05-16T00:10:09;12.07;;;3.90;;
64199;SDS011;50516;52.272;5.136;2023-05-16T00:12:35;20.73;;;4.53;;
64199;SDS011;50516;52.272;5.136;2023-05-16T00:15:02;13.63;;;3.53;;
64199;SDS011;50516;52.272;5.136;2023-05-16T00:17:29;13.32;;;3.70;;
64199;SDS011;50516;52.272;5.136;2023-05-16T00:19:54;15.65;;;4.00;;
64199;SDS011;50516;52.272;5.136;2023-05-16T00:22:23;11.88;;;3.40;;
64199;SDS011;50516;52.272;5.136;2023-05-16T00:24:49;22.25;;;4.70;;
64199;SDS011;50516;52.272;5.136;2023-05-16T00:27:14;17.50;;;3.50;;
64199;SDS011;50516;52.272;5.136;2023-05-16T00:29:40;21.15;;;4.22;;
64199;SDS011;50516;52.272;5.136;2023-05-16T00:32:05;16.77;;;3.78;;
64199;SDS011;50516;52.272;5.136;2023-05-16T00:34:32;13.82;;;3.15;;
64199;SDS011;50516;52.272;5.136;2023-05-16T00:36:58;22.27;;;4.15;;
64199;SDS011;50516;52.272;5.136;2023-05-16T00:39:24;18.23;;;3.58;;
64199;SDS011;50516;52.272;5.136;2023-05-16T00:41:49;13.93;;;3.30;;
64199;SDS011;50516;52.272;5.136;2023-05-16T00:44:15;18.08;;;3.60;;
64199;SDS011;50516;52.272;5.136;2023-05-16T00:46:40;15.90;;;3.53;;
64199;SDS011;50516;52.272;5.136;2023-05-16T00:49:06;12.07;;;3.45;;
64199;SDS011;50516;52.272;5.136;2023-05-16T00:51:32;16.35;;;3.55;;
64199;SDS011;50516;52.272;5.136;2023-05-16T00:53:58;23.30;;;4.15;;
64199;SDS011;50516;52.272;5.136;2023-05-16T00:56:24;17.85;;;3.45;;
64199;SDS011;50516;52.272;5.136;2023-05-16T00:58:49;21.67;;;3.42;;
64199;SDS011;50516;52.272;5.136;2023-05-16T01:01:15;17.73;;;3.53;;
64199;SDS011;50516;52.272;5.136;2023-05-16T01:03:41;13.32;;;3.63;;
64199;SDS011;50516;52.272;5.136;2023-05-16T01:06:09;15.18;;;3.63;;
64199;SDS011;50516;52.272;5.136;2023-05-16T01:08:36;12.32;;;2.95;;
64199;SDS011;50516;52.272;5.136;2023-05-16T01:11:03;14.38;;;4.25;;
64199;SDS011;50516;52.272;5.136;2023-05-16T01:16:30;12.35;;;3.55;;
64199;SDS011;50516;52.272;5.136;2023-05-16T01:19:12;10.52;;;2.90;;
64199;SDS011;50516;52.272;5.136;2023-05-16T01:21:52;15.85;;;4.28;;
64199;SDS011;50516;52.272;5.136;2023-05-16T01:24:34;12.13;;;3.03;;
64199;SDS011;50516;52.272;5.136;2023-05-16T01:27:03;12.98;;;3.67;;
64199;SDS011;50516;52.272;5.136;2023-05-16T01:29:29;16.80;;;3.67;;
64199;SDS011;50516;52.272;5.136;2023-05-16T01:31:54;18.67;;;4.30;;
64199;SDS011;50516;52.272;5.136;2023-05-16T01:34:20;14.48;;;3.60;;
64199;SDS011;50516;52.272;5.136;2023-05-16T01:39:36;21.13;;;3.20;;
64199;SDS011;50516;52.272;5.136;2023-05-16T01:42:12;14.10;;;3.30;;
64199;SDS011;50516;52.272;5.136;2023-05-16T01:44:42;13.50;;;3.47;;
64199;SDS011;50516;52.272;5.136;2023-05-16T01:47:11;14.73;;;4.00;;
64199;SDS011;50516;52.272;5.136;2023-05-16T01:49:52;14.70;;;4.75;;
64199;SDS011;50516;52.272;5.136;2023-05-16T01:52:25;17.02;;;3.53;;
64199;SDS011;50516;52.272;5.136;2023-05-16T01:54:56;12.90;;;3.42;;
64199;SDS011;50516;52.272;5.136;2023-05-16T01:57:24;16.75;;;3.30;;
64199;SDS011;50516;52.272;5.136;2023-05-16T01:59:52;17.45;;;3.70;;
64199;SDS011;50516;52.272;5.136;2023-05-16T02:02:18;15.73;;;3.65;;
64199;SDS011;50516;52.272;5.136;2023-05-16T02:04:43;14.55;;;3.55;;
64199;SDS011;50516;52.272;5.136;2023-05-16T02:07:09;20.20;;;3.25;;
64199;SDS011;50516;52.272;5.136;2023-05-16T02:09:34;13.10;;;2.88;;
64199;SDS011;50516;52.272;5.136;2023-05-16T02:12:00;17.40;;;3.50;;
64199;SDS011;50516;52.272;5.136;2023-05-16T02:14:26;13.43;;;3.30;;
64199;SDS011;50516;52.272;5.136;2023-05-16T02:16:51;19.70;;;3.70;;
64199;SDS011;50516;52.272;5.136;2023-05-16T02:19:17;12.32;;;2.80;;
64199;SDS011;50516;52.272;5.136;2023-05-16T02:21:42;15.13;;;3.40;;
64199;SDS011;50516;52.272;5.136;2023-05-16T02:24:08;18.73;;;3.90;;
64199;SDS011;50516;52.272;5.136;2023-05-16T02:26:33;14.45;;;3.40;;
64199;SDS011;50516;52.272;5.136;2023-05-16T02:29:05;16.98;;;3.90;;
64199;SDS011;50516;52.272;5.136;2023-05-16T02:31:31;17.10;;;3.20;;
64199;SDS011;50516;52.272;5.136;2023-05-16T02:33:58;12.45;;;4.05;;
64199;SDS011;50516;52.272;5.136;2023-05-16T02:36:24;13.60;;;4.07;;
64199;SDS011;50516;52.272;5.136;2023-05-16T02:38:50;13.82;;;3.30;;
64199;SDS011;50516;52.272;5.136;2023-05-16T02:41:15;16.75;;;3.28;;
64199;SDS011;50516;52.272;5.136;2023-05-16T02:43:41;12.70;;;3.60;;
64199;SDS011;50516;52.272;5.136;2023-05-16T02:48:52;15.35;;;3.40;;
64199;SDS011;50516;52.272;5.136;2023-05-16T02:51:19;11.00;;;3.00;;
64199;SDS011;50516;52.272;5.136;2023-05-16T02:53:49;15.48;;;3.35;;
64199;SDS011;50516;52.272;5.136;2023-05-16T02:56:15;12.88;;;3.28;;
64199;SDS011;50516;52.272;5.136;2023-05-16T02:58:41;15.00;;;2.97;;
64199;SDS011;50516;52.272;5.136;2023-05-16T03:01:07;12.65;;;2.80;;
64199;SDS011;50516;52.272;5.136;2023-05-16T03:03:32;16.45;;;4.60;;
64199;SDS011;50516;52.272;5.136;2023-05-16T03:06:00;15.32;;;3.00;;
64199;SDS011;50516;52.272;5.136;2023-05-16T03:08:25;19.75;;;4.90;;
64199;SDS011;50516;52.272;5.136;2023-05-16T03:10:50;22.70;;;3.30;;
64199;SDS011;50516;52.272;5.136;2023-05-16T03:13:16;15.88;;;3.42;;
64199;SDS011;50516;52.272;5.136;2023-05-16T03:15:41;14.52;;;4.05;;
64199;SDS011;50516;52.272;5.136;2023-05-16T03:18:07;16.98;;;3.55;;
64199;SDS011;50516;52.272;5.136;2023-05-16T03:20:32;9.85;;;3.30;;
64199;SDS011;50516;52.272;5.136;2023-05-16T03:22:57;11.18;;;3.42;;
64199;SDS011;50516;52.272;5.136;2023-05-16T03:25:23;14.77;;;3.25;;
64199;SDS011;50516;52.272;5.136;2023-05-16T03:27:48;11.93;;;2.83;;
64199;SDS011;50516;52.272;5.136;2023-05-16T03:30:13;17.60;;;3.22;;
64199;SDS011;50516;52.272;5.136;2023-05-16T03:32:39;22.05;;;3.63;;
64199;SDS011;50516;52.272;5.136;2023-05-16T03:35:05;17.15;;;3.00;;
64199;SDS011;50516;52.272;5.136;2023-05-16T03:37:31;16.02;;;4.15;;
64199;SDS011;50516;52.272;5.136;2023-05-16T03:39:56;13.45;;;3.30;;
64199;SDS011;50516;52.272;5.136;2023-05-16T03:42:21;24.35;;;4.78;;
64199;SDS011;50516;52.272;5.136;2023-05-16T03:44:47;11.57;;;3.00;;
64199;SDS011;50516;52.272;5.136;2023-05-16T03:47:12;17.27;;;3.58;;
64199;SDS011;50516;52.272;5.136;2023-05-16T03:49:38;11.02;;;2.63;;
64199;SDS011;50516;52.272;5.136;2023-05-16T03:52:04;16.40;;;3.42;;
64199;SDS011;50516;52.272;5.136;2023-05-16T03:54:29;10.27;;;3.08;;
64199;SDS011;50516;52.272;5.136;2023-05-16T03:56:55;14.07;;;3.90;;
64199;SDS011;50516;52.272;5.136;2023-05-16T03:59:20;15.13;;;2.85;;
64199;SDS011;50516;52.272;5.136;2023-05-16T04:01:46;10.23;;;2.85;;
64199;SDS011;50516;52.272;5.136;2023-05-16T04:04:11;7.95;;;2.50;;
64199;SDS011;50516;52.272;5.136;2023-05-16T04:06:38;10.60;;;2.60;;
64199;SDS011;50516;52.272;5.136;2023-05-16T04:09:03;12.18;;;3.20;;
64199;SDS011;50516;52.272;5.136;2023-05-16T04:11:30;13.80;;;3.53;;
64199;SDS011;50516;52.272;5.136;2023-05-16T04:13:55;8.80;;;2.70;;
64199;SDS011;50516;52.272;5.136;2023-05-16T04:16:21;6.57;;;2.47;;
64199;SDS011;50516;52.272;5.136;2023-05-16T04:18:46;10.82;;;2.40;;
64199;SDS011;50516;52.272;5.136;2023-05-16T04:21:11;10.77;;;2.78;;
64199;SDS011;50516;52.272;5.136;2023-05-16T04:23:39;16.98;;;2.80;;
64199;SDS011;50516;52.272;5.136;2023-05-16T04:26:07;12.43;;;3.00;;
64199;SDS011;50516;52.272;5.136;2023-05-16T04:28:33;10.77;;;3.53;;
64199;SDS011;50516;52.272;5.136;2023-05-16T04:30:58;11.32;;;3.22;;
64199;SDS011;50516;52.272;5.136;2023-05-16T04:33:23;13.18;;;2.42;;
64199;SDS011;50516;52.272;5.136;2023-05-16T04:35:49;9.13;;;2.70;;
64199;SDS011;50516;52.272;5.136;2023-05-16T04:38:14;11.65;;;2.78;;
64199;SDS011;50516;52.272;5.136;2023-05-16T04:40:40;13.45;;;2.90;;
64199;SDS011;50516;52.272;5.136;2023-05-16T04:43:08;13.55;;;3.08;;
64199;SDS011;50516;52.272;5.136;2023-05-16T04:45:34;13.55;;;3.13;;
64199;SDS011;50516;52.272;5.136;2023-05-16T04:48:00;10.18;;;2.70;;
64199;SDS011;50516;52.272;5.136;2023-05-16T04:50:25;11.95;;;2.72;;
64199;SDS011;50516;52.272;5.136;2023-05-16T04:52:51;13.45;;;2.58;;
64199;SDS011;50516;52.272;5.136;2023-05-16T04:55:16;17.27;;;4.28;;
64199;SDS011;50516;52.272;5.136;2023-05-16T04:57:41;14.23;;;2.97;;
64199;SDS011;50516;52.272;5.136;2023-05-16T05:00:07;9.90;;;3.15;;
64199;SDS011;50516;52.272;5.136;2023-05-16T05:02:35;11.10;;;3.20;;
64199;SDS011;50516;52.272;5.136;2023-05-16T05:05:01;11.57;;;2.80;;
64199;SDS011;50516;52.272;5.136;2023-05-16T05:07:27;10.95;;;3.33;;
64199;SDS011;50516;52.272;5.136;2023-05-16T05:09:53;17.20;;;3.00;;
64199;SDS011;50516;52.272;5.136;2023-05-16T05:12:20;11.55;;;2.78;;
64199;SDS011;50516;52.272;5.136;2023-05-16T05:14:45;8.77;;;2.95;;
64199;SDS011;50516;52.272;5.136;2023-05-16T05:17:11;13.43;;;3.13;;
64199;SDS011;50516;52.272;5.136;2023-05-16T05:19:36;15.23;;;3.20;;
64199;SDS011;50516;52.272;5.136;2023-05-16T05:22:01;9.57;;;2.60;;
64199;SDS011;50516;52.272;5.136;2023-05-16T05:24:27;11.75;;;3.17;;
64199;SDS011;50516;52.272;5.136;2023-05-16T05:26:52;9.70;;;2.60;;
64199;SDS011;50516;52.272;5.136;2023-05-16T05:29:17;11.45;;;2.25;;
64199;SDS011;50516;52.272;5.136;2023-05-16T05:31:43;13.10;;;3.08;;
64199;SDS011;50516;52.272;5.136;2023-05-16T05:34:08;15.13;;;3.67;;
64199;SDS011;50516;52.272;5.136;2023-05-16T05:36:33;14.45;;;2.67;;
64199;SDS011;50516;52.272;5.136;2023-05-16T05:38:58;13.07;;;3.80;;
64199;SDS011;50516;52.272;5.136;2023-05-16T05:41:24;15.23;;;3.65;;
64199;SDS011;50516;52.272;5.136;2023-05-16T05:43:50;19.55;;;3.67;;
64199;SDS011;50516;52.272;5.136;2023-05-16T05:46:15;9.63;;;3.13;;
64199;SDS011;50516;52.272;5.136;2023-05-16T05:48:41;14.43;;;3.05;;
64199;SDS011;50516;52.272;5.136;2023-05-16T05:51:06;7.32;;;2.70;;
64199;SDS011;50516;52.272;5.136;2023-05-16T05:53:32;10.20;;;2.65;;
64199;SDS011;50516;52.272;5.136;2023-05-16T05:55:57;12.02;;;3.00;;
64199;SDS011;50516;52.272;5.136;2023-05-16T05:58:22;12.50;;;3.83;;
64199;SDS011;50516;52.272;5.136;2023-05-16T06:00:48;12.38;;;2.67;;
64199;SDS011;50516;52.272;5.136;2023-05-16T06:03:13;13.98;;;3.55;;
64199;SDS011;50516;52.272;5.136;2023-05-16T06:05:38;11.52;;;2.45;;
64199;SDS011;50516;52.272;5.136;2023-05-16T06:08:04;12.38;;;2.70;;
64199;SDS011;50516;52.272;5.136;2023-05-16T06:10:29;8.80;;;2.40;;
64199;SDS011;50516;52.272;5.136;2023-05-16T06:12:55;9.40;;;2.35;;
64199;SDS011;50516;52.272;5.136;2023-05-16T06:15:20;10.15;;;2.45;;
64199;SDS011;50516;52.272;5.136;2023-05-16T06:17:46;20.17;;;3.20;;
64199;SDS011;50516;52.272;5.136;2023-05-16T06:20:11;13.68;;;2.80;;
64199;SDS011;50516;52.272;5.136;2023-05-16T06:22:36;14.93;;;3.00;;
64199;SDS011;50516;52.272;5.136;2023-05-16T06:25:02;7.85;;;2.85;;
64199;SDS011;50516;52.272;5.136;2023-05-16T06:27:27;11.65;;;3.42;;
64199;SDS011;50516;52.272;5.136;2023-05-16T06:29:52;12.52;;;3.47;;
64199;SDS011;50516;52.272;5.136;2023-05-16T06:32:18;11.45;;;4.35;;
64199;SDS011;50516;52.272;5.136;2023-05-16T06:34:43;12.57;;;2.58;;
64199;SDS011;50516;52.272;5.136;2023-05-16T06:37:08;22.58;;;3.65;;
64199;SDS011;50516;52.272;5.136;2023-05-16T06:39:34;9.27;;;2.40;;
64199;SDS011;50516;52.272;5.136;2023-05-16T06:41:59;10.65;;;2.92;;
64199;SDS011;50516;52.272;5.136;2023-05-16T06:44:24;14.82;;;2.75;;
64199;SDS011;50516;52.272;5.136;2023-05-16T06:46:50;15.73;;;3.35;;
64199;SDS011;50516;52.272;5.136;2023-05-16T06:49:15;11.27;;;2.80;;
64199;SDS011;50516;52.272;5.136;2023-05-16T06:51:40;13.43;;;3.38;;
64199;SDS011;50516;52.272;5.136;2023-05-16T06:54:06;13.32;;;3.70;;
64199;SDS011;50516;52.272;5.136;2023-05-16T06:56:31;10.55;;;3.20;;
64199;SDS011;50516;52.272;5.136;2023-05-16T06:58:56;7.03;;;2.20;;
64199;SDS011;50516;52.272;5.136;2023-05-16T07:01:22;12.98;;;3.05;;
64199;SDS011;50516;52.272;5.136;2023-05-16T07:03:47;12.38;;;3.05;;
64199;SDS011;50516;52.272;5.136;2023-05-16T07:06:12;33.97;;;7.53;;
64199;SDS011;50516;52.272;5.136;2023-05-16T07:08:38;68.43;;;13.38;;
64199;SDS011;50516;52.272;5.136;2023-05-16T07:11:03;94.78;;;20.35;;
64199;SDS011;50516;52.272;5.136;2023-05-16T07:13:28;82.95;;;21.58;;
64199;SDS011;50516;52.272;5.136;2023-05-16T07:15:54;23.42;;;5.82;;
64199;SDS011;50516;52.272;5.136;2023-05-16T07:18:19;14.38;;;4.30;;
64199;SDS011;50516;52.272;5.136;2023-05-16T07:20:44;18.65;;;3.63;;
64199;SDS011;50516;52.272;5.136;2023-05-16T07:23:10;13.27;;;3.60;;
64199;SDS011;50516;52.272;5.136;2023-05-16T07:25:36;9.88;;;2.65;;
64199;SDS011;50516;52.272;5.136;2023-05-16T07:28:01;7.60;;;2.28;;
64199;SDS011;50516;52.272;5.136;2023-05-16T07:30:27;11.18;;;2.40;;
64199;SDS011;50516;52.272;5.136;2023-05-16T07:32:52;7.55;;;2.28;;
64199;SDS011;50516;52.272;5.136;2023-05-16T07:35:17;10.35;;;2.92;;
64199;SDS011;50516;52.272;5.136;2023-05-16T07:37:43;9.38;;;2.72;;
64199;SDS011;50516;52.272;5.136;2023-05-16T07:40:09;9.07;;;2.70;;
64199;SDS011;50516;52.272;5.136;2023-05-16T07:42:35;12.85;;;2.47;;
64199;SDS011;50516;52.272;5.136;2023-05-16T07:45:00;6.40;;;1.52;;
64199;SDS011;50516;52.272;5.136;2023-05-16T07:47:26;9.68;;;2.15;;
64199;SDS011;50516;52.272;5.136;2023-05-16T07:49:52;31.65;;;3.60;;
64199;SDS011;50516;52.272;5.136;2023-05-16T07:52:17;9.05;;;2.20;;
64199;SDS011;50516;52.272;5.136;2023-05-16T07:54:43;14.75;;;2.90;;
64199;SDS011;50516;52.272;5.136;2023-05-16T07:57:10;10.35;;;2.55;;
64199;SDS011;50516;52.272;5.136;2023-05-16T07:59:35;8.13;;;2.47;;
64199;SDS011;50516;52.272;5.136;2023-05-16T08:02:00;15.43;;;2.72;;
64199;SDS011;50516;52.272;5.136;2023-05-16T08:04:26;12.90;;;3.05;;
64199;SDS011;50516;52.272;5.136;2023-05-16T08:06:51;8.45;;;2.55;;
64199;SDS011;50516;52.272;5.136;2023-05-16T08:09:16;8.43;;;2.22;;
64199;SDS011;50516;52.272;5.136;2023-05-16T08:11:43;11.82;;;2.40;;
64199;SDS011;50516;52.272;5.136;2023-05-16T08:14:10;10.02;;;3.25;;
64199;SDS011;50516;52.272;5.136;2023-05-16T08:16:35;8.88;;;2.28;;
64199;SDS011;50516;52.272;5.136;2023-05-16T08:19:01;8.13;;;2.00;;
64199;SDS011;50516;52.272;5.136;2023-05-16T08:21:26;5.68;;;2.05;;
64199;SDS011;50516;52.272;5.136;2023-05-16T08:23:52;7.20;;;2.55;;
64199;SDS011;50516;52.272;5.136;2023-05-16T08:26:17;9.80;;;2.78;;
64199;SDS011;50516;52.272;5.136;2023-05-16T08:28:43;9.23;;;2.03;;
64199;SDS011;50516;52.272;5.136;2023-05-16T08:31:08;10.15;;;2.28;;
64199;SDS011;50516;52.272;5.136;2023-05-16T08:33:33;5.88;;;1.98;;
64199;SDS011;50516;52.272;5.136;2023-05-16T08:35:59;8.50;;;2.50;;
64199;SDS011;50516;52.272;5.136;2023-05-16T08:38:25;6.50;;;2.63;;
64199;SDS011;50516;52.272;5.136;2023-05-16T08:40:50;7.95;;;2.28;;
64199;SDS011;50516;52.272;5.136;2023-05-16T08:43:15;8.20;;;2.30;;
64199;SDS011;50516;52.272;5.136;2023-05-16T08:45:41;9.82;;;2.55;;
64199;SDS011;50516;52.272;5.136;2023-05-16T08:48:06;8.95;;;2.60;;
64199;SDS011;50516;52.272;5.136;2023-05-16T08:50:34;6.30;;;2.28;;
64199;SDS011;50516;52.272;5.136;2023-05-16T08:53:03;9.80;;;2.70;;
64199;SDS011;50516;52.272;5.136;2023-05-16T08:55:31;9.60;;;3.40;;
64199;SDS011;50516;52.272;5.136;2023-05-16T08:57:57;12.02;;;2.38;;
64199;SDS011;50516;52.272;5.136;2023-05-16T09:00:24;11.95;;;2.85;;
64199;SDS011;50516;52.272;5.136;2023-05-16T09:02:51;16.02;;;2.70;;
64199;SDS011;50516;52.272;5.136;2023-05-16T09:05:17;11.00;;;2.00;;
64199;SDS011;50516;52.272;5.136;2023-05-16T09:07:43;7.55;;;2.13;;
64199;SDS011;50516;52.272;5.136;2023-05-16T09:10:09;8.38;;;1.92;;
64199;SDS011;50516;52.272;5.136;2023-05-16T09:12:35;8.75;;;2.45;;
64199;SDS011;50516;52.272;5.136;2023-05-16T09:15:01;6.60;;;2.20;;
64199;SDS011;50516;52.272;5.136;2023-05-16T09:17:33;6.72;;;2.15;;
64199;SDS011;50516;52.272;5.136;2023-05-16T09:20:04;11.23;;;2.42;;
64199;SDS011;50516;52.272;5.136;2023-05-16T09:22:32;11.73;;;2.22;;
64199;SDS011;50516;52.272;5.136;2023-05-16T09:24:58;7.75;;;2.10;;
64199;SDS011;50516;52.272;5.136;2023-05-16T09:27:23;12.80;;;2.53;;
64199;SDS011;50516;52.272;5.136;2023-05-16T09:29:49;9.63;;;2.42;;
64199;SDS011;50516;52.272;5.136;2023-05-16T09:32:16;9.85;;;2.67;;
64199;SDS011;50516;52.272;5.136;2023-05-16T09:34:42;5.75;;;2.25;;
64199;SDS011;50516;52.272;5.136;2023-05-16T09:37:09;12.07;;;2.22;;
64199;SDS011;50516;52.272;5.136;2023-05-16T09:39:35;10.13;;;2.25;;
64199;SDS011;50516;52.272;5.136;2023-05-16T09:42:01;9.50;;;1.98;;
64199;SDS011;50516;52.272;5.136;2023-05-16T09:44:26;11.35;;;2.70;;
64199;SDS011;50516;52.272;5.136;2023-05-16T09:46:55;10.32;;;2.70;;
64199;SDS011;50516;52.272;5.136;2023-05-16T09:49:20;8.88;;;2.28;;
64199;SDS011;50516;52.272;5.136;2023-05-16T09:51:46;7.38;;;2.38;;
64199;SDS011;50516;52.272;5.136;2023-05-16T09:54:11;10.68;;;3.20;;
64199;SDS011;50516;52.272;5.136;2023-05-16T09:56:49;7.32;;;2.22;;
64199;SDS011;50516;52.272;5.136;2023-05-16T09:59:15;8.93;;;2.88;;
64199;SDS011;50516;52.272;5.136;2023-05-16T10:01:40;6.90;;;1.95;;
64199;SDS011;50516;52.272;5.136;2023-05-16T10:04:06;7.22;;;2.20;;
64199;SDS011;50516;52.272;5.136;2023-05-16T10:06:34;7.13;;;2.63;;
64199;SDS011;50516;52.272;5.136;2023-05-16T10:09:00;6.38;;;2.03;;
64199;SDS011;50516;52.272;5.136;2023-05-16T10:11:27;7.20;;;2.00;;
64199;SDS011;50516;52.272;5.136;2023-05-16T10:13:53;11.55;;;2.17;;
64199;SDS011;50516;52.272;5.136;2023-05-16T10:16:20;7.28;;;1.92;;
64199;SDS011;50516;52.272;5.136;2023-05-16T10:18:47;6.47;;;2.20;;
64199;SDS011;50516;52.272;5.136;2023-05-16T10:21:14;7.97;;;2.00;;
64199;SDS011;50516;52.272;5.136;2023-05-16T10:23:42;8.90;;;2.03;;
64199;SDS011;50516;52.272;5.136;2023-05-16T10:26:11;7.22;;;2.20;;
64199;SDS011;50516;52.272;5.136;2023-05-16T10:28:39;9.18;;;1.58;;
64199;SDS011;50516;52.272;5.136;2023-05-16T10:31:04;10.35;;;2.15;;
64199;SDS011;50516;52.272;5.136;2023-05-16T10:33:31;5.43;;;1.88;;
64199;SDS011;50516;52.272;5.136;2023-05-16T10:35:57;5.68;;;1.85;;
64199;SDS011;50516;52.272;5.136;2023-05-16T10:38:22;8.73;;;2.20;;
64199;SDS011;50516;52.272;5.136;2023-05-16T10:40:48;5.30;;;2.03;;
64199;SDS011;50516;52.272;5.136;2023-05-16T10:43:27;10.35;;;2.65;;
64199;SDS011;50516;52.272;5.136;2023-05-16T10:46:15;7.95;;;2.03;;
64199;SDS011;50516;52.272;5.136;2023-05-16T10:48:40;8.82;;;2.20;;
64199;SDS011;50516;52.272;5.136;2023-05-16T10:54:05;8.07;;;2.50;;
64199;SDS011;50516;52.272;5.136;2023-05-16T10:56:33;9.18;;;2.20;;
64199;SDS011;50516;52.272;5.136;2023-05-16T10:58:59;6.10;;;2.13;;
64199;SDS011;50516;52.272;5.136;2023-05-16T11:06:31;7.93;;;2.22;;
64199;SDS011;50516;52.272;5.136;2023-05-16T11:14:20;6.13;;;2.22;;
64199;SDS011;50516;52.272;5.136;2023-05-16T11:17:07;10.35;;;2.30;;
64199;SDS011;50516;52.272;5.136;2023-05-16T11:27:28;6.57;;;2.28;;
64199;SDS011;50516;52.272;5.136;2023-05-16T11:30:00;6.43;;;2.50;;
64199;SDS011;50516;52.272;5.136;2023-05-16T11:32:36;9.15;;;2.00;;
64199;SDS011;50516;52.272;5.136;2023-05-16T11:35:02;6.78;;;1.83;;
64199;SDS011;50516;52.272;5.136;2023-05-16T11:37:29;8.40;;;2.22;;
64199;SDS011;50516;52.272;5.136;2023-05-16T11:39:58;8.18;;;2.10;;
64199;SDS011;50516;52.272;5.136;2023-05-16T11:42:27;8.68;;;2.40;;
64199;SDS011;50516;52.272;5.136;2023-05-16T11:45:05;7.38;;;2.20;;
64199;SDS011;50516;52.272;5.136;2023-05-16T11:47:39;7.43;;;2.20;;
64199;SDS011;50516;52.272;5.136;2023-05-16T11:50:10;8.23;;;2.10;;
64199;SDS011;50516;52.272;5.136;2023-05-16T11:52:37;7.47;;;2.15;;
64199;SDS011;50516;52.272;5.136;2023-05-16T11:55:04;6.97;;;2.17;;
64199;SDS011;50516;52.272;5.136;2023-05-16T11:57:31;9.05;;;2.15;;
64199;SDS011;50516;52.272;5.136;2023-05-16T12:00:18;8.63;;;1.95;;
64199;SDS011;50516;52.272;5.136;2023-05-16T12:02:44;8.00;;;2.80;;
64199;SDS011;50516;52.272;5.136;2023-05-16T12:05:11;9.05;;;2.90;;
64199;SDS011;50516;52.272;5.136;2023-05-16T12:07:37;9.50;;;2.50;;
64199;SDS011;50516;52.272;5.136;2023-05-16T12:10:06;6.63;;;2.05;;
64199;SDS011;50516;52.272;5.136;2023-05-16T12:12:32;6.55;;;1.88;;
64199;SDS011;50516;52.272;5.136;2023-05-16T12:14:59;6.38;;;2.20;;
64199;SDS011;50516;52.272;5.136;2023-05-16T12:17:24;8.43;;;2.75;;
64199;SDS011;50516;52.272;5.136;2023-05-16T12:19:50;4.88;;;2.00;;
64199;SDS011;50516;52.272;5.136;2023-05-16T12:22:16;13.00;;;2.85;;
64199;SDS011;50516;52.272;5.136;2023-05-16T12:24:42;6.88;;;1.80;;
64199;SDS011;50516;52.272;5.136;2023-05-16T12:27:08;6.28;;;2.38;;
64199;SDS011;50516;52.272;5.136;2023-05-16T12:29:33;7.03;;;2.33;;
64199;SDS011;50516;52.272;5.136;2023-05-16T12:31:59;8.07;;;2.33;;
64199;SDS011;50516;52.272;5.136;2023-05-16T12:34:29;10.25;;;2.70;;
64199;SDS011;50516;52.272;5.136;2023-05-16T12:36:54;7.55;;;2.50;;
64199;SDS011;50516;52.272;5.136;2023-05-16T12:39:20;7.28;;;2.28;;
64199;SDS011;50516;52.272;5.136;2023-05-16T12:41:47;8.90;;;2.60;;
64199;SDS011;50516;52.272;5.136;2023-05-16T12:44:13;7.07;;;2.10;;
64199;SDS011;50516;52.272;5.136;2023-05-16T12:46:44;7.05;;;2.25;;
64199;SDS011;50516;52.272;5.136;2023-05-16T12:49:11;6.75;;;2.30;;
64199;SDS011;50516;52.272;5.136;2023-05-16T12:51:37;9.52;;;2.33;;
64199;SDS011;50516;52.272;5.136;2023-05-16T12:54:07;8.27;;;2.25;;
64199;SDS011;50516;52.272;5.136;2023-05-16T12:56:35;9.65;;;2.65;;
64199;SDS011;50516;52.272;5.136;2023-05-16T12:59:00;5.22;;;2.00;;
64199;SDS011;50516;52.272;5.136;2023-05-16T13:01:26;7.82;;;2.80;;
64199;SDS011;50516;52.272;5.136;2023-05-16T13:03:51;6.97;;;1.83;;
64199;SDS011;50516;52.272;5.136;2023-05-16T13:06:16;7.53;;;2.35;;
64199;SDS011;50516;52.272;5.136;2023-05-16T13:08:42;6.20;;;2.05;;
64199;SDS011;50516;52.272;5.136;2023-05-16T13:11:07;5.65;;;1.65;;
64199;SDS011;50516;52.272;5.136;2023-05-16T13:13:33;8.60;;;2.20;;
64199;SDS011;50516;52.272;5.136;2023-05-16T13:15:58;19.45;;;2.17;;
64199;SDS011;50516;52.272;5.136;2023-05-16T13:18:23;6.88;;;1.90;;
64199;SDS011;50516;52.272;5.136;2023-05-16T13:20:49;8.70;;;1.85;;
64199;SDS011;50516;52.272;5.136;2023-05-16T13:23:15;5.55;;;2.30;;
64199;SDS011;50516;52.272;5.136;2023-05-16T13:25:40;8.43;;;2.47;;
64199;SDS011;50516;52.272;5.136;2023-05-16T13:28:05;7.65;;;2.03;;
64199;SDS011;50516;52.272;5.136;2023-05-16T13:30:31;10.30;;;3.25;;
64199;SDS011;50516;52.272;5.136;2023-05-16T13:32:56;8.55;;;2.40;;
64199;SDS011;50516;52.272;5.136;2023-05-16T13:35:22;9.38;;;2.92;;
64199;SDS011;50516;52.272;5.136;2023-05-16T13:37:48;7.80;;;2.50;;
64199;SDS011;50516;52.272;5.136;2023-05-16T13:40:13;8.65;;;2.38;;
64199;SDS011;50516;52.272;5.136;2023-05-16T13:42:38;5.05;;;1.83;;
64199;SDS011;50516;52.272;5.136;2023-05-16T13:45:04;4.57;;;2.10;;
64199;SDS011;50516;52.272;5.136;2023-05-16T13:47:30;10.93;;;2.38;;
64199;SDS011;50516;52.272;5.136;2023-05-16T13:49:56;6.95;;;2.08;;
64199;SDS011;50516;52.272;5.136;2023-05-16T13:52:22;9.32;;;3.13;;
64199;SDS011;50516;52.272;5.136;2023-05-16T13:54:47;7.75;;;2.10;;
64199;SDS011;50516;52.272;5.136;2023-05-16T13:57:13;7.35;;;2.33;;
64199;SDS011;50516;52.272;5.136;2023-05-16T13:59:38;10.18;;;2.28;;
64199;SDS011;50516;52.272;5.136;2023-05-16T14:02:04;8.43;;;2.63;;
64199;SDS011;50516;52.272;5.136;2023-05-16T14:04:29;10.02;;;2.33;;
64199;SDS011;50516;52.272;5.136;2023-05-16T14:06:54;4.45;;;1.88;;
64199;SDS011;50516;52.272;5.136;2023-05-16T14:09:20;8.10;;;2.72;;
64199;SDS011;50516;52.272;5.136;2023-05-16T14:11:45;9.85;;;2.13;;
64199;SDS011;50516;52.272;5.136;2023-05-16T14:14:11;9.40;;;2.20;;
64199;SDS011;50516;52.272;5.136;2023-05-16T14:16:36;6.50;;;2.10;;
64199;SDS011;50516;52.272;5.136;2023-05-16T14:19:01;6.20;;;2.15;;
64199;SDS011;50516;52.272;5.136;2023-05-16T14:21:27;12.40;;;2.80;;
64199;SDS011;50516;52.272;5.136;2023-05-16T14:23:52;9.05;;;3.00;;
64199;SDS011;50516;52.272;5.136;2023-05-16T14:26:17;7.60;;;2.08;;
64199;SDS011;50516;52.272;5.136;2023-05-16T14:28:46;5.47;;;2.13;;
64199;SDS011;50516;52.272;5.136;2023-05-16T14:31:12;6.75;;;2.40;;
64199;SDS011;50516;52.272;5.136;2023-05-16T14:33:37;8.43;;;1.80;;
64199;SDS011;50516;52.272;5.136;2023-05-16T14:36:05;8.18;;;2.13;;
64199;SDS011;50516;52.272;5.136;2023-05-16T14:38:31;8.07;;;2.03;;
64199;SDS011;50516;52.272;5.136;2023-05-16T14:40:56;6.18;;;2.00;;
64199;SDS011;50516;52.272;5.136;2023-05-16T14:43:21;6.75;;;2.30;;
64199;SDS011;50516;52.272;5.136;2023-05-16T14:45:47;7.18;;;2.33;;
64199;SDS011;50516;52.272;5.136;2023-05-16T14:48:12;6.38;;;2.00;;
64199;SDS011;50516;52.272;5.136;2023-05-16T14:50:38;10.82;;;2.88;;
64199;SDS011;50516;52.272;5.136;2023-05-16T14:53:03;11.05;;;2.38;;
64199;SDS011;50516;52.272;5.136;2023-05-16T14:55:28;12.27;;;2.38;;
64199;SDS011;50516;52.272;5.136;2023-05-16T14:57:54;11.80;;;3.38;;
64199;SDS011;50516;52.272;5.136;2023-05-16T15:00:23;15.43;;;3.35;;
64199;SDS011;50516;52.272;5.136;2023-05-16T15:02:49;11.15;;;2.50;;
64199;SDS011;50516;52.272;5.136;2023-05-16T15:05:15;12.55;;;2.70;;